Time;durP1;ratioP1;P1;durP2;ratioP2;P2;SDS_P1;SDS_P2;PMS_P1;PMS_P2;Temp;Humidity;BMP_temperature;BMP_pressure;BME280_temperature;BME280_humidity;BME280_pressure;Samples;Min_cycle;Max_cycle;Signal;HPM_P1;HPM_P2
2022/07/28 00:02:15;;;;;;;2.73;2.03;;;;;;;;;;5095715;28;20443;-65
2022/07/28 00:04:44;;;;;;;8.13;2.00;;;;;;;;;;5096112;28;20451;-65
2022/07/28 00:07:11;;;;;;;4.70;2.10;;;;;;;;;;5095949;28;20442;-67
2022/07/28 00:09:39;;;;;;;5.23;2.70;;;;;;;;;;5095927;28;20879;-65
2022/07/28 00:12:06;;;;;;;5.63;2.20;;;;;;;;;;5095492;28;20544;-66
2022/07/28 00:14:34;;;;;;;3.83;2.20;;;;;;;;;;5096019;28;20445;-65
2022/07/28 00:17:01;;;;;;;9.37;2.07;;;;;;;;;;5095729;28;20997;-65
2022/07/28 00:19:28;;;;;;;1.93;1.83;;;;;;;;;;5096306;28;20545;-64
2022/07/28 00:21:57;;;;;;;2.20;1.90;;;;;;;;;;5095369;28;20535;-66
2022/07/28 00:24:24;;;;;;;4.60;2.13;;;;;;;;;;5095406;28;20526;-65
2022/07/28 00:26:51;;;;;;;3.53;2.00;;;;;;;;;;5095286;28;20920;-66
2022/07/28 00:29:19;;;;;;;2.90;2.03;;;;;;;;;;5095183;28;20564;-65
2022/07/28 00:31:46;;;;;;;2.70;1.90;;;;;;;;;;5095586;28;20801;-65
2022/07/28 00:34:14;;;;;;;5.70;2.47;;;;;;;;;;5095078;28;20520;-66
2022/07/28 00:36:41;;;;;;;4.97;2.07;;;;;;;;;;5095426;28;20439;-65
2022/07/28 00:39:09;;;;;;;3.63;2.00;;;;;;;;;;5095052;28;20448;-65
2022/07/28 00:41:37;;;;;;;3.20;2.00;;;;;;;;;;5095337;28;20444;-65
2022/07/28 00:44:06;;;;;;;2.93;2.17;;;;;;;;;;5095291;28;20443;-65
2022/07/28 00:46:33;;;;;;;3.60;2.10;;;;;;;;;;5094918;28;20531;-65
2022/07/28 00:49:00;;;;;;;2.37;2.13;;;;;;;;;;5095171;28;20530;-65
2022/07/28 00:51:28;;;;;;;3.60;2.30;;;;;;;;;;5094799;28;20450;-66
2022/07/28 00:53:55;;;;;;;5.93;3.30;;;;;;;;;;5095251;28;20446;-65
2022/07/28 00:56:24;;;;;;;2.53;2.33;;;;;;;;;;5095186;28;20531;-65
2022/07/28 00:58:51;;;;;;;5.97;2.00;;;;;;;;;;5094886;28;20530;-64
2022/07/28 01:01:19;;;;;;;2.73;2.53;;;;;;;;;;5094946;28;20518;-65
2022/07/28 01:03:47;;;;;;;7.00;2.30;;;;;;;;;;5095055;28;20448;-66
2022/07/28 01:06:22;;;;;;;4.90;2.17;;;;;;;;;;5095231;28;20522;-65
2022/07/28 01:08:56;;;;;;;4.77;2.20;;;;;;;;;;5094918;28;20475;-67
2022/07/28 01:11:27;;;;;;;4.97;3.00;;;;;;;;;;5095151;28;20425;-65
2022/07/28 01:13:55;;;;;;;7.30;2.37;;;;;;;;;;5094398;28;20909;-65
2022/07/28 01:16:23;;;;;;;1.87;1.77;;;;;;;;;;5094574;28;20467;-65
2022/07/28 01:18:55;;;;;;;5.70;2.10;;;;;;;;;;5094563;28;20958;-65
2022/07/28 01:21:26;;;;;;;5.83;2.50;;;;;;;;;;5094856;28;20495;-65
2022/07/28 01:24:06;;;;;;;3.73;1.97;;;;;;;;;;5094523;28;20535;-65
2022/07/28 01:26:42;;;;;;;4.23;2.20;;;;;;;;;;5094618;28;20429;-65
2022/07/28 01:29:17;;;;;;;6.63;2.10;;;;;;;;;;5094505;28;20474;-65
2022/07/28 01:31:49;;;;;;;5.03;2.80;;;;;;;;;;5094663;28;20427;-65
2022/07/28 01:34:17;;;;;;;7.40;2.17;;;;;;;;;;5093658;28;20427;-66
2022/07/28 01:36:46;;;;;;;2.60;1.73;;;;;;;;;;5094418;28;20446;-66
2022/07/28 01:39:14;;;;;;;3.57;2.10;;;;;;;;;;5094384;28;20527;-66
2022/07/28 01:41:42;;;;;;;3.33;2.70;;;;;;;;;;5094561;28;20444;-65
2022/07/28 01:44:12;;;;;;;6.60;2.37;;;;;;;;;;5094095;28;20446;-65
2022/07/28 01:46:40;;;;;;;4.60;2.90;;;;;;;;;;5093855;28;20870;-65
2022/07/28 01:49:10;;;;;;;3.37;2.30;;;;;;;;;;5093984;28;20566;-65
2022/07/28 01:51:37;;;;;;;4.57;2.10;;;;;;;;;;5094244;28;20447;-66
2022/07/28 01:54:05;;;;;;;3.83;2.20;;;;;;;;;;5093730;28;20449;-65
2022/07/28 01:56:34;;;;;;;2.63;2.20;;;;;;;;;;5094082;28;20523;-65
2022/07/28 01:59:04;;;;;;;2.37;2.00;;;;;;;;;;5093803;28;20475;-66
2022/07/28 02:01:32;;;;;;;2.77;2.47;;;;;;;;;;5093643;28;20511;-65
2022/07/28 02:04:01;;;;;;;3.33;2.20;;;;;;;;;;5093741;28;20440;-66
2022/07/28 02:06:30;;;;;;;7.67;2.60;;;;;;;;;;5093864;28;20521;-65
2022/07/28 02:08:58;;;;;;;8.10;2.70;;;;;;;;;;5093604;28;20479;-65
2022/07/28 02:11:41;;;;;;;3.77;2.60;;;;;;;;;;5093422;28;20531;-65
2022/07/28 02:14:09;;;;;;;4.93;2.80;;;;;;;;;;5094214;28;20429;-66
2022/07/28 02:16:40;;;;;;;6.33;3.00;;;;;;;;;;5093849;28;20560;-65
2022/07/28 02:19:08;;;;;;;5.83;1.93;;;;;;;;;;5093669;28;20493;-66
2022/07/28 02:21:37;;;;;;;5.90;2.37;;;;;;;;;;5093816;28;20526;-66
2022/07/28 02:24:07;;;;;;;6.40;2.37;;;;;;;;;;5093352;28;20440;-65
2022/07/28 02:26:36;;;;;;;8.20;2.23;;;;;;;;;;5093556;28;20451;-66
2022/07/28 02:29:05;;;;;;;3.03;2.00;;;;;;;;;;5093372;28;20551;-65
2022/07/28 02:31:35;;;;;;;5.20;2.57;;;;;;;;;;5093774;28;20526;-65
2022/07/28 02:34:04;;;;;;;2.20;2.00;;;;;;;;;;5093828;28;20431;-65
2022/07/28 02:36:32;;;;;;;3.30;2.47;;;;;;;;;;5093983;28;20795;-65
2022/07/28 02:39:03;;;;;;;2.63;2.00;;;;;;;;;;5093656;28;20446;-66
2022/07/28 02:41:32;;;;;;;3.00;2.27;;;;;;;;;;5093238;28;21011;-66
2022/07/28 02:44:01;;;;;;;2.90;1.93;;;;;;;;;;5093040;28;20964;-65
2022/07/28 02:46:32;;;;;;;3.00;2.53;;;;;;;;;;5097239;28;20929;-65
2022/07/28 02:49:03;;;;;;;6.50;2.20;;;;;;;;;;5097034;28;20467;-66
2022/07/28 02:51:32;;;;;;;3.00;2.13;;;;;;;;;;5097201;28;20428;-66
2022/07/28 02:54:00;;;;;;;7.50;2.30;;;;;;;;;;5097129;28;20450;-66
2022/07/28 02:56:29;;;;;;;7.07;2.33;;;;;;;;;;5097043;28;20518;-65
2022/07/28 02:58:57;;;;;;;6.13;2.07;;;;;;;;;;5097254;28;20772;-65
2022/07/28 03:01:24;;;;;;;4.53;2.27;;;;;;;;;;5097351;28;20444;-65
2022/07/28 03:03:52;;;;;;;6.10;2.27;;;;;;;;;;5097249;28;20506;-66
2022/07/28 03:06:21;;;;;;;4.83;2.37;;;;;;;;;;5097103;28;20439;-66
2022/07/28 03:08:49;;;;;;;3.10;2.07;;;;;;;;;;5097394;28;20518;-65
2022/07/28 03:11:16;;;;;;;5.83;2.73;;;;;;;;;;5097009;28;20439;-65
2022/07/28 03:13:45;;;;;;;3.80;1.97;;;;;;;;;;5096690;28;20949;-66
2022/07/28 03:16:12;;;;;;;5.67;2.07;;;;;;;;;;5096765;28;20471;-65
2022/07/28 03:18:40;;;;;;;7.60;2.27;;;;;;;;;;5096658;28;20531;-66
2022/07/28 03:21:07;;;;;;;3.90;2.17;;;;;;;;;;5096828;28;20523;-66
2022/07/28 03:23:37;;;;;;;3.53;2.37;;;;;;;;;;5096875;28;20471;-65
2022/07/28 03:26:07;;;;;;;2.57;1.80;;;;;;;;;;5096724;28;21005;-66
2022/07/28 03:28:34;;;;;;;3.20;2.17;;;;;;;;;;5097257;28;20440;-66
2022/07/28 03:31:06;;;;;;;3.53;2.20;;;;;;;;;;5096655;28;20524;-65
2022/07/28 03:33:33;;;;;;;7.93;2.03;;;;;;;;;;5096908;28;20503;-66
2022/07/28 03:36:03;;;;;;;4.70;2.07;;;;;;;;;;5096790;28;20450;-65
2022/07/28 03:38:34;;;;;;;9.70;3.07;;;;;;;;;;5096794;28;20531;-65
2022/07/28 03:41:02;;;;;;;5.20;2.00;;;;;;;;;;5096209;28;20519;-66
2022/07/28 03:43:30;;;;;;;5.80;2.47;;;;;;;;;;5096720;28;20440;-66
2022/07/28 03:45:57;;;;;;;5.83;2.27;;;;;;;;;;5096675;28;20449;-65
2022/07/28 03:48:30;;;;;;;7.07;2.70;;;;;;;;;;5096386;28;20542;-65
2022/07/28 03:50:58;;;;;;;6.13;2.20;;;;;;;;;;5096415;28;20476;-66
2022/07/28 03:53:26;;;;;;;4.60;2.57;;;;;;;;;;5096485;28;20459;-65
2022/07/28 03:55:53;;;;;;;2.67;2.47;;;;;;;;;;5095659;28;20471;-66
2022/07/28 03:58:21;;;;;;;5.43;2.30;;;;;;;;;;5096326;28;20544;-66
2022/07/28 04:00:49;;;;;;;4.30;1.70;;;;;;;;;;5095761;28;20538;-66
2022/07/28 04:03:16;;;;;;;6.67;2.90;;;;;;;;;;5096128;28;20842;-66
2022/07/28 04:05:45;;;;;;;9.30;2.37;;;;;;;;;;5094691;28;20458;-66
2022/07/28 04:08:12;;;;;;;10.00;2.43;;;;;;;;;;5096355;28;20539;-65
2022/07/28 04:10:39;;;;;;;4.10;2.80;;;;;;;;;;5095525;28;21010;-66
2022/07/28 04:13:07;;;;;;;3.27;2.23;;;;;;;;;;5095995;28;20479;-66
2022/07/28 04:15:35;;;;;;;4.07;2.80;;;;;;;;;;5094501;28;20440;-67
2022/07/28 04:18:02;;;;;;;5.20;2.17;;;;;;;;;;5095560;28;20478;-65
2022/07/28 04:20:29;;;;;;;8.50;2.93;;;;;;;;;;5095760;28;20522;-66
2022/07/28 04:22:58;;;;;;;6.40;3.10;;;;;;;;;;5095771;28;20474;-65
2022/07/28 04:25:26;;;;;;;4.57;2.67;;;;;;;;;;5095791;28;20509;-65
2022/07/28 04:27:54;;;;;;;9.33;3.10;;;;;;;;;;5095589;28;20432;-65
2022/07/28 04:30:23;;;;;;;4.63;2.37;;;;;;;;;;5095395;28;20481;-66
2022/07/28 04:32:51;;;;;;;4.20;2.50;;;;;;;;;;5095116;28;20523;-65
2022/07/28 04:35:19;;;;;;;5.90;2.73;;;;;;;;;;5095330;28;20443;-66
2022/07/28 04:37:47;;;;;;;2.60;2.00;;;;;;;;;;5095260;28;20447;-66
2022/07/28 04:40:16;;;;;;;9.33;2.60;;;;;;;;;;5094949;28;20444;-66
2022/07/28 04:42:43;;;;;;;4.10;2.67;;;;;;;;;;5095624;28;20450;-65
2022/07/28 04:45:11;;;;;;;4.60;2.57;;;;;;;;;;5095548;28;20439;-66
2022/07/28 04:47:39;;;;;;;7.90;2.83;;;;;;;;;;5094864;28;20962;-66
2022/07/28 04:50:06;;;;;;;4.27;2.30;;;;;;;;;;5095136;28;20475;-65
2022/07/28 04:52:34;;;;;;;4.90;2.23;;;;;;;;;;5095058;28;20531;-65
2022/07/28 04:55:01;;;;;;;4.47;2.93;;;;;;;;;;5095417;28;20543;-66
2022/07/28 04:57:30;;;;;;;5.03;2.43;;;;;;;;;;5094950;28;20474;-65
2022/07/28 04:59:57;;;;;;;4.80;2.60;;;;;;;;;;5095222;28;20487;-65
2022/07/28 05:02:24;;;;;;;5.37;2.90;;;;;;;;;;5094824;28;20521;-65
2022/07/28 05:04:51;;;;;;;3.90;2.80;;;;;;;;;;5095058;28;20440;-65
2022/07/28 05:07:19;;;;;;;5.73;2.33;;;;;;;;;;5094325;28;20443;-66
2022/07/28 05:09:46;;;;;;;2.80;2.50;;;;;;;;;;5093940;28;20562;-65
2022/07/28 05:12:13;;;;;;;2.27;1.93;;;;;;;;;;5094811;28;20442;-65
2022/07/28 05:14:42;;;;;;;7.10;3.10;;;;;;;;;;5094963;28;21028;-65
2022/07/28 05:17:10;;;;;;;3.63;2.40;;;;;;;;;;5094561;28;20986;-65
2022/07/28 05:19:37;;;;;;;4.20;2.60;;;;;;;;;;5094279;28;20543;-65
2022/07/28 05:22:04;;;;;;;2.83;2.57;;;;;;;;;;5094856;28;20489;-66
2022/07/28 05:24:31;;;;;;;4.53;2.33;;;;;;;;;;5094618;28;20443;-66
2022/07/28 05:26:58;;;;;;;5.27;2.90;;;;;;;;;;5094523;28;20540;-65
2022/07/28 05:29:26;;;;;;;5.03;2.33;;;;;;;;;;5094423;28;20440;-69
2022/07/28 05:31:54;;;;;;;10.67;2.90;;;;;;;;;;5093929;28;20539;-65
2022/07/28 05:34:22;;;;;;;6.57;2.73;;;;;;;;;;5094160;28;20520;-65
2022/07/28 05:36:49;;;;;;;4.87;2.77;;;;;;;;;;5094746;28;20859;-66
2022/07/28 05:39:17;;;;;;;3.10;2.10;;;;;;;;;;5094694;28;20445;-66
2022/07/28 05:41:44;;;;;;;2.63;2.07;;;;;;;;;;5094165;28;20501;-65
2022/07/28 05:44:11;;;;;;;4.63;2.20;;;;;;;;;;5093861;28;20956;-65
2022/07/28 05:46:38;;;;;;;3.50;2.30;;;;;;;;;;5094065;28;20526;-65
2022/07/28 05:49:07;;;;;;;6.63;3.37;;;;;;;;;;5094119;28;20443;-65
2022/07/28 05:51:36;;;;;;;7.53;4.50;;;;;;;;;;5093878;28;20482;-65
2022/07/28 05:54:03;;;;;;;3.50;2.40;;;;;;;;;;5093564;28;20439;-65
2022/07/28 05:56:31;;;;;;;4.60;3.77;;;;;;;;;;5093518;28;20973;-65
2022/07/28 05:58:58;;;;;;;5.83;2.67;;;;;;;;;;5093987;28;20439;-65
2022/07/28 06:01:25;;;;;;;4.90;2.33;;;;;;;;;;5093826;28;20548;-64
2022/07/28 06:03:52;;;;;;;4.00;1.87;;;;;;;;;;5093585;28;20449;-65
2022/07/28 06:06:21;;;;;;;3.33;2.10;;;;;;;;;;5093556;28;20443;-65
2022/07/28 06:08:48;;;;;;;2.97;2.53;;;;;;;;;;5093776;28;20528;-66
2022/07/28 06:11:16;;;;;;;4.00;1.70;;;;;;;;;;5093438;28;20475;-65
2022/07/28 06:13:45;;;;;;;1.83;1.73;;;;;;;;;;5093677;28;20821;-65
2022/07/28 06:16:12;;;;;;;4.87;3.30;;;;;;;;;;5093171;28;20559;-66
2022/07/28 06:18:39;;;;;;;2.60;2.40;;;;;;;;;;5093701;28;20446;-65
2022/07/28 06:21:06;;;;;;;9.87;3.00;;;;;;;;;;5092980;28;20447;-65
2022/07/28 06:23:35;;;;;;;8.20;2.37;;;;;;;;;;5093662;28;20451;-66
2022/07/28 06:26:02;;;;;;;3.40;2.20;;;;;;;;;;5093891;28;20524;-66
2022/07/28 06:28:31;;;;;;;3.23;2.17;;;;;;;;;;5093209;28;21006;-65
2022/07/28 06:30:58;;;;;;;5.33;1.77;;;;;;;;;;5093557;28;20472;-64
2022/07/28 06:33:25;;;;;;;2.77;1.70;;;;;;;;;;5093147;28;20452;-65
2022/07/28 06:35:52;;;;;;;3.97;2.13;;;;;;;;;;5093634;28;20468;-65
2022/07/28 06:38:20;;;;;;;4.50;2.27;;;;;;;;;;5093086;28;20447;-65
2022/07/28 06:40:48;;;;;;;8.77;2.10;;;;;;;;;;5093502;28;20444;-65
2022/07/28 06:43:16;;;;;;;6.83;2.90;;;;;;;;;;5093139;28;20992;-65
2022/07/28 06:45:44;;;;;;;7.77;2.00;;;;;;;;;;5093866;28;20531;-65
2022/07/28 06:48:12;;;;;;;6.67;2.57;;;;;;;;;;5093646;28;20449;-66
2022/07/28 06:50:39;;;;;;;2.47;2.00;;;;;;;;;;5093337;28;20854;-65
2022/07/28 06:53:07;;;;;;;2.33;1.90;;;;;;;;;;5092889;28;20953;-66
2022/07/28 06:55:34;;;;;;;2.87;1.93;;;;;;;;;;5093865;28;20438;-67
2022/07/28 06:58:02;;;;;;;3.83;2.10;;;;;;;;;;5093308;28;20521;-65
2022/07/28 07:00:30;;;;;;;5.63;2.20;;;;;;;;;;5093031;28;20446;-64
2022/07/28 07:02:57;;;;;;;3.63;1.93;;;;;;;;;;5093240;28;20462;-66
2022/07/28 07:05:28;;;;;;;2.37;2.17;;;;;;;;;;5093326;28;20482;-65
2022/07/28 07:07:55;;;;;;;3.30;2.17;;;;;;;;;;5093838;28;20512;-65
2022/07/28 07:10:22;;;;;;;5.57;1.97;;;;;;;;;;5093245;28;20877;-65
2022/07/28 07:12:49;;;;;;;6.50;2.47;;;;;;;;;;5093485;28;20509;-65
2022/07/28 07:15:18;;;;;;;7.20;3.00;;;;;;;;;;5093140;28;20481;-65
2022/07/28 07:17:45;;;;;;;3.20;2.30;;;;;;;;;;5093552;28;20555;-65
2022/07/28 07:20:13;;;;;;;17.60;5.30;;;;;;;;;;5093421;28;20492;-65
2022/07/28 07:22:42;;;;;;;4.10;3.20;;;;;;;;;;5093023;28;20449;-65
2022/07/28 07:25:10;;;;;;;3.90;1.80;;;;;;;;;;5093272;28;20559;-65
2022/07/28 07:27:37;;;;;;;3.93;2.00;;;;;;;;;;5093008;28;20435;-66
2022/07/28 07:30:05;;;;;;;4.90;1.93;;;;;;;;;;5092659;28;20455;-65
2022/07/28 07:32:33;;;;;;;2.23;1.70;;;;;;;;;;5094890;28;20526;-65
2022/07/28 07:35:01;;;;;;;2.53;1.97;;;;;;;;;;5097023;28;20445;-65
2022/07/28 07:37:31;;;;;;;5.97;1.97;;;;;;;;;;5096776;28;20852;-66
2022/07/28 07:39:58;;;;;;;8.33;1.97;;;;;;;;;;5096577;28;20774;-64
2022/07/28 07:42:26;;;;;;;3.57;2.20;;;;;;;;;;5096552;28;20444;-65
2022/07/28 07:44:53;;;;;;;4.20;1.83;;;;;;;;;;5096415;28;20444;-65
2022/07/28 07:47:20;;;;;;;6.77;2.17;;;;;;;;;;5096423;28;20488;-65
2022/07/28 07:49:50;;;;;;;2.43;1.83;;;;;;;;;;5096358;28;20837;-65
2022/07/28 07:52:17;;;;;;;9.83;2.00;;;;;;;;;;5096797;28;20471;-65
2022/07/28 07:54:45;;;;;;;5.27;2.77;;;;;;;;;;5095914;28;20949;-65
2022/07/28 07:57:12;;;;;;;2.63;1.70;;;;;;;;;;5095926;28;20445;-65
2022/07/28 07:59:40;;;;;;;2.73;1.60;;;;;;;;;;5096166;28;20992;-64
2022/07/28 08:02:07;;;;;;;1.70;1.60;;;;;;;;;;5096169;28;20447;-66
2022/07/28 08:04:34;;;;;;;3.27;1.83;;;;;;;;;;5096262;28;20632;-65
2022/07/28 08:07:03;;;;;;;4.87;2.47;;;;;;;;;;5096037;28;20532;-65
2022/07/28 08:09:30;;;;;;;2.00;1.87;;;;;;;;;;5095629;28;20942;-65
2022/07/28 08:11:57;;;;;;;2.07;1.87;;;;;;;;;;5095874;28;20474;-65
2022/07/28 08:14:24;;;;;;;3.90;3.43;;;;;;;;;;5095826;28;20441;-65
2022/07/28 08:16:53;;;;;;;3.57;1.80;;;;;;;;;;5095706;28;20507;-65
2022/07/28 08:19:20;;;;;;;4.27;1.70;;;;;;;;;;5095186;28;20469;-65
2022/07/28 08:21:47;;;;;;;6.67;2.60;;;;;;;;;;5095661;28;20537;-65
2022/07/28 08:24:16;;;;;;;2.43;2.13;;;;;;;;;;5095498;28;20456;-64
2022/07/28 08:26:43;;;;;;;3.60;2.00;;;;;;;;;;5095305;28;20444;-65
2022/07/28 08:29:10;;;;;;;3.07;1.70;;;;;;;;;;5095983;28;20818;-65
2022/07/28 08:31:37;;;;;;;5.43;2.20;;;;;;;;;;5095558;28;20873;-65
2022/07/28 08:34:04;;;;;;;2.93;1.70;;;;;;;;;;5095435;28;20448;-64
2022/07/28 08:36:32;;;;;;;3.80;2.07;;;;;;;;;;5095176;28;20531;-64
2022/07/28 08:38:59;;;;;;;3.03;2.50;;;;;;;;;;5095336;28;20802;-65
2022/07/28 08:41:31;;;;;;;6.63;2.13;;;;;;;;;;5095417;28;20453;-65
2022/07/28 08:44:00;;;;;;;3.53;2.37;;;;;;;;;;5094798;28;20442;-65
2022/07/28 08:46:27;;;;;;;3.87;1.77;;;;;;;;;;5094990;28;20444;-65
2022/07/28 08:48:55;;;;;;;3.73;2.47;;;;;;;;;;5094837;28;20449;-65
2022/07/28 08:51:22;;;;;;;1.87;1.50;;;;;;;;;;5095077;28;20564;-65
2022/07/28 08:53:50;;;;;;;4.30;1.80;;;;;;;;;;5094835;28;21001;-66
2022/07/28 08:56:18;;;;;;;2.60;1.70;;;;;;;;;;5095111;28;20440;-64
2022/07/28 08:58:47;;;;;;;2.60;1.73;;;;;;;;;;5094987;28;20491;-65
2022/07/28 09:01:14;;;;;;;3.57;2.07;;;;;;;;;;5094850;28;20452;-65
2022/07/28 09:03:41;;;;;;;5.07;1.90;;;;;;;;;;5094590;28;20439;-65
2022/07/28 09:06:08;;;;;;;10.63;2.33;;;;;;;;;;5094558;28;20537;-66
2022/07/28 09:08:36;;;;;;;3.40;1.47;;;;;;;;;;5094566;28;20448;-65
2022/07/28 09:11:05;;;;;;;3.07;1.57;;;;;;;;;;5094708;28;20504;-65
2022/07/28 09:13:32;;;;;;;5.13;1.70;;;;;;;;;;5094469;28;20937;-64
2022/07/28 09:16:01;;;;;;;4.03;1.73;;;;;;;;;;5094552;28;20792;-65
2022/07/28 09:18:28;;;;;;;2.70;1.50;;;;;;;;;;5094510;28;20456;-65
2022/07/28 09:20:55;;;;;;;4.63;1.70;;;;;;;;;;5094676;28;20537;-65
2022/07/28 09:23:22;;;;;;;2.37;1.50;;;;;;;;;;5094570;28;20531;-65
2022/07/28 09:25:50;;;;;;;3.87;2.40;;;;;;;;;;5094489;28;20976;-65
2022/07/28 09:28:18;;;;;;;3.67;1.77;;;;;;;;;;5094148;28;20525;-64
2022/07/28 09:30:46;;;;;;;4.93;1.67;;;;;;;;;;5094453;28;20582;-65
2022/07/28 09:33:24;;;;;;;2.47;1.70;;;;;;;;;;5094120;28;20448;-64
2022/07/28 09:35:52;;;;;;;5.00;2.00;;;;;;;;;;5093956;28;20425;-65
2022/07/28 09:38:21;;;;;;;7.53;1.83;;;;;;;;;;5094281;28;20481;-65
2022/07/28 09:40:58;;;;;;;6.53;2.47;;;;;;;;;;5093909;28;20438;-65
2022/07/28 09:43:36;;;;;;;5.07;1.70;;;;;;;;;;5093952;28;20918;-65
2022/07/28 09:46:07;;;;;;;5.50;1.97;;;;;;;;;;5094137;28;20532;-66
2022/07/28 09:48:36;;;;;;;4.30;1.93;;;;;;;;;;5094170;28;20490;-66
2022/07/28 09:51:11;;;;;;;2.60;1.93;;;;;;;;;;5094096;28;20507;-66
2022/07/28 09:53:38;;;;;;;7.57;2.00;;;;;;;;;;5093513;28;20441;-65
2022/07/28 09:56:06;;;;;;;6.90;2.23;;;;;;;;;;5093518;28;20443;-65
2022/07/28 09:58:33;;;;;;;3.27;1.77;;;;;;;;;;5093981;28;20459;-67
2022/07/28 10:01:04;;;;;;;4.00;2.00;;;;;;;;;;5093901;28;20479;-65
2022/07/28 10:03:32;;;;;;;2.50;1.80;;;;;;;;;;5093929;28;20459;-65
2022/07/28 10:06:03;;;;;;;2.47;1.77;;;;;;;;;;5093511;28;20440;-65
2022/07/28 10:08:45;;;;;;;2.40;1.87;;;;;;;;;;5093962;28;20466;-65
2022/07/28 10:11:13;;;;;;;2.57;1.87;;;;;;;;;;5093740;28;20546;-65
2022/07/28 10:13:52;;;;;;;5.77;3.43;;;;;;;;;;5093988;28;20438;-64
2022/07/28 10:16:20;;;;;;;4.20;1.87;;;;;;;;;;5093534;28;20560;-65
2022/07/28 10:18:47;;;;;;;4.57;2.20;;;;;;;;;;5093738;28;20440;-65
2022/07/28 10:21:19;;;;;;;4.90;2.03;;;;;;;;;;5093279;28;20534;-65
2022/07/28 10:23:47;;;;;;;8.00;2.27;;;;;;;;;;5094433;28;20449;-65
2022/07/28 10:26:15;;;;;;;3.13;2.20;;;;;;;;;;5093726;28;20443;-65
2022/07/28 10:28:47;;;;;;;4.53;1.97;;;;;;;;;;5093670;28;20435;-65
2022/07/28 10:31:15;;;;;;;4.30;2.20;;;;;;;;;;5093611;28;20563;-65
2022/07/28 10:33:47;;;;;;;5.30;2.10;;;;;;;;;;5093768;28;20519;-65
2022/07/28 10:36:18;;;;;;;2.60;2.17;;;;;;;;;;5093231;28;20432;-65
2022/07/28 10:38:45;;;;;;;13.13;8.30;;;;;;;;;;5094129;28;20425;-65
2022/07/28 10:41:14;;;;;;;5.77;2.23;;;;;;;;;;5093375;28;20503;-64
2022/07/28 10:43:42;;;;;;;4.27;2.10;;;;;;;;;;5093767;28;20466;-64
2022/07/28 10:46:09;;;;;;;3.97;1.70;;;;;;;;;;5093420;28;20527;-65
2022/07/28 10:48:37;;;;;;;2.43;1.60;;;;;;;;;;5093319;28;20867;-66
2022/07/28 10:51:04;;;;;;;3.80;1.90;;;;;;;;;;5093511;28;20437;-65
2022/07/28 10:53:36;;;;;;;3.07;1.67;;;;;;;;;;5092968;28;20447;-66
2022/07/28 10:56:05;;;;;;;4.87;2.20;;;;;;;;;;5093517;28;20520;-66
2022/07/28 10:58:37;;;;;;;7.27;4.73;;;;;;;;;;5093346;28;20522;-65
2022/07/28 11:01:05;;;;;;;5.30;2.50;;;;;;;;;;5093541;28;20442;-65
2022/07/28 11:03:41;;;;;;;2.47;2.27;;;;;;;;;;5093009;28;20535;-65
2022/07/28 11:06:27;;;;;;;4.80;2.10;;;;;;;;;;5095258;28;20430;-66
2022/07/28 11:08:56;;;;;;;4.90;1.77;;;;;;;;;;5097408;28;20525;-65
2022/07/28 11:11:41;;;;;;;1.70;1.60;;;;;;;;;;5096712;28;20473;-65
2022/07/28 11:14:24;;;;;;;2.67;1.60;;;;;;;;;;5097160;28;20517;-65
2022/07/28 11:16:51;;;;;;;7.10;2.30;;;;;;;;;;5096706;28;20494;-65
2022/07/28 11:19:19;;;;;;;4.37;1.63;;;;;;;;;;5097014;28;20864;-65
2022/07/28 11:22:01;;;;;;;3.43;1.60;;;;;;;;;;5096838;28;20548;-65
2022/07/28 11:24:49;;;;;;;2.83;2.17;;;;;;;;;;5096914;28;21017;-65
2022/07/28 11:27:16;;;;;;;4.23;1.90;;;;;;;;;;5096708;28;20541;-65
2022/07/28 11:29:47;;;;;;;8.60;2.30;;;;;;;;;;5097624;28;20526;-65
2022/07/28 11:32:14;;;;;;;2.30;1.73;;;;;;;;;;5096466;28;20913;-65
2022/07/28 11:35:00;;;;;;;3.70;2.10;;;;;;;;;;5096436;28;20482;-65
2022/07/28 11:37:27;;;;;;;3.07;2.00;;;;;;;;;;5096266;28;20481;-65
2022/07/28 11:39:55;;;;;;;8.70;2.00;;;;;;;;;;5096922;28;20485;-64
2022/07/28 11:42:26;;;;;;;4.37;1.67;;;;;;;;;;5096620;28;20516;-64
2022/07/28 11:44:53;;;;;;;1.90;1.70;;;;;;;;;;5096524;28;20449;-64
2022/07/28 11:47:21;;;;;;;4.90;1.97;;;;;;;;;;5096084;28;20952;-65
2022/07/28 11:50:03;;;;;;;4.37;2.33;;;;;;;;;;5096433;28;20470;-66
2022/07/28 11:52:30;;;;;;;2.90;1.63;;;;;;;;;;5096264;28;20466;-65
2022/07/28 11:54:59;;;;;;;4.23;1.73;;;;;;;;;;5097070;28;20487;-65
2022/07/28 11:57:27;;;;;;;5.40;1.93;;;;;;;;;;5096216;28;20440;-65
2022/07/28 11:59:55;;;;;;;2.33;1.73;;;;;;;;;;5096676;28;20487;-65
2022/07/28 12:02:25;;;;;;;2.77;1.77;;;;;;;;;;5096354;28;20447;-65
2022/07/28 12:04:59;;;;;;;2.80;1.83;;;;;;;;;;5096266;28;20538;-65
2022/07/28 12:07:32;;;;;;;3.27;1.83;;;;;;;;;;5096037;28;20532;-65
2022/07/28 12:10:00;;;;;;;4.10;2.30;;;;;;;;;;5095744;28;20932;-64
2022/07/28 12:12:28;;;;;;;8.70;5.17;;;;;;;;;;5095859;28;20944;-64
2022/07/28 12:14:56;;;;;;;2.37;2.00;;;;;;;;;;5095605;28;20478;-64
2022/07/28 12:17:23;;;;;;;7.30;2.90;;;;;;;;;;5095202;28;20566;-65
2022/07/28 12:19:53;;;;;;;2.50;1.60;;;;;;;;;;5095862;28;20518;-65
2022/07/28 12:22:20;;;;;;;2.60;1.73;;;;;;;;;;5095715;28;20869;-65
2022/07/28 12:24:47;;;;;;;5.77;2.80;;;;;;;;;;5096019;28;20641;-65
2022/07/28 12:27:16;;;;;;;7.63;1.97;;;;;;;;;;5095236;28;20442;-65
2022/07/28 12:29:43;;;;;;;6.10;5.50;;;;;;;;;;5095646;28;21011;-65
2022/07/28 12:32:11;;;;;;;9.70;6.83;;;;;;;;;;5095446;28;20475;-65
2022/07/28 12:34:39;;;;;;;4.30;3.80;;;;;;;;;;5095236;28;20465;-65
2022/07/28 12:37:08;;;;;;;6.50;3.97;;;;;;;;;;5095333;28;20444;-65
2022/07/28 12:39:38;;;;;;;9.10;7.53;;;;;;;;;;5095455;28;20493;-65
2022/07/28 12:42:06;;;;;;;3.70;2.20;;;;;;;;;;5095255;28;20488;-65
2022/07/28 12:44:36;;;;;;;6.83;3.83;;;;;;;;;;5094976;28;20996;-65
2022/07/28 12:47:05;;;;;;;7.63;2.03;;;;;;;;;;5094854;28;20450;-65
2022/07/28 12:49:32;;;;;;;2.57;2.00;;;;;;;;;;5095195;28;20440;-65
2022/07/28 12:51:59;;;;;;;5.17;2.00;;;;;;;;;;5094583;28;20479;-65
2022/07/28 12:54:36;;;;;;;3.77;2.67;;;;;;;;;;5095355;28;20562;-65
2022/07/28 12:57:04;;;;;;;6.03;2.17;;;;;;;;;;5074792;28;20458;-67
2022/07/28 12:59:34;;;;;;;4.23;2.07;;;;;;;;;;5054824;28;20480;-65
2022/07/28 13:02:03;;;;;;;6.07;2.10;;;;;;;;;;5054239;28;20529;-65
2022/07/28 13:04:41;;;;;;;7.07;2.00;;;;;;;;;;5054376;28;20925;-64
2022/07/28 13:07:12;;;;;;;3.63;1.97;;;;;;;;;;5054319;28;20514;-65
2022/07/28 13:09:44;;;;;;;3.47;1.90;;;;;;;;;;5055002;28;20802;-65
2022/07/28 13:12:15;;;;;;;7.23;3.57;;;;;;;;;;5054236;28;20481;-65
2022/07/28 13:14:43;;;;;;;5.87;2.67;;;;;;;;;;5054046;28;20447;-65
2022/07/28 13:17:12;;;;;;;9.67;7.83;;;;;;;;;;5085551;28;20475;-65
2022/07/28 13:19:39;;;;;;;3.40;2.40;;;;;;;;;;5094719;28;20464;-65
2022/07/28 13:22:06;;;;;;;2.90;2.13;;;;;;;;;;5094140;28;20454;-65
2022/07/28 13:24:33;;;;;;;4.00;2.10;;;;;;;;;;5093951;28;20559;-64
2022/07/28 13:27:02;;;;;;;5.20;2.37;;;;;;;;;;5093997;28;20443;-65
2022/07/28 13:29:29;;;;;;;3.60;2.27;;;;;;;;;;5093262;28;20446;-65
2022/07/28 13:31:56;;;;;;;3.37;1.83;;;;;;;;;;5094349;28;20437;-65
2022/07/28 13:34:24;;;;;;;2.63;2.03;;;;;;;;;;5094131;28;20525;-65
2022/07/28 13:36:52;;;;;;;4.10;1.97;;;;;;;;;;5094098;28;20529;-65
2022/07/28 13:39:19;;;;;;;10.70;2.03;;;;;;;;;;5094104;28;20841;-65
2022/07/28 13:41:46;;;;;;;6.03;2.67;;;;;;;;;;5094005;28;20871;-65
2022/07/28 13:44:13;;;;;;;3.93;2.00;;;;;;;;;;5093994;28;20442;-64
2022/07/28 13:46:42;;;;;;;5.33;1.73;;;;;;;;;;5094149;28;20448;-65
2022/07/28 13:49:10;;;;;;;4.80;4.30;;;;;;;;;;5093491;28;20458;-65
2022/07/28 13:51:38;;;;;;;3.03;2.10;;;;;;;;;;5093961;28;20449;-65
2022/07/28 13:54:05;;;;;;;3.30;1.90;;;;;;;;;;5093323;28;20497;-65
2022/07/28 13:56:40;;;;;;;3.53;2.07;;;;;;;;;;5093862;28;20438;-65
2022/07/28 13:59:07;;;;;;;3.10;1.97;;;;;;;;;;5093541;28;20439;-65
2022/07/28 14:01:35;;;;;;;2.20;1.63;;;;;;;;;;5093666;28;20868;-65
2022/07/28 14:04:02;;;;;;;2.50;2.00;;;;;;;;;;5093423;28;20449;-64
2022/07/28 14:06:30;;;;;;;2.70;1.60;;;;;;;;;;5093721;28;20485;-65
2022/07/28 14:08:58;;;;;;;5.60;1.80;;;;;;;;;;5093501;28;20826;-65
2022/07/28 14:11:25;;;;;;;6.23;2.50;;;;;;;;;;5093511;28;20436;-65
2022/07/28 14:13:53;;;;;;;1.70;1.60;;;;;;;;;;5093492;28;20805;-64
2022/07/28 14:16:20;;;;;;;4.43;1.80;;;;;;;;;;5093131;28;20840;-65
2022/07/28 14:18:48;;;;;;;3.70;2.10;;;;;;;;;;5093233;28;20535;-65
2022/07/28 14:21:15;;;;;;;6.20;2.97;;;;;;;;;;5093594;28;20539;-65
2022/07/28 14:23:42;;;;;;;2.70;2.00;;;;;;;;;;5093781;28;20448;-66
2022/07/28 14:26:11;;;;;;;2.17;1.60;;;;;;;;;;5093578;28;20524;-65
2022/07/28 14:28:38;;;;;;;2.80;2.00;;;;;;;;;;5093201;28;20449;-66
2022/07/28 14:31:05;;;;;;;8.23;2.30;;;;;;;;;;5093537;28;20497;-65
2022/07/28 14:33:33;;;;;;;9.40;4.03;;;;;;;;;;5093301;28;20596;-65
2022/07/28 14:36:00;;;;;;;2.53;1.90;;;;;;;;;;5093165;28;20447;-66
2022/07/28 14:38:28;;;;;;;3.83;1.73;;;;;;;;;;5093414;28;20446;-66
2022/07/28 14:40:55;;;;;;;3.03;2.10;;;;;;;;;;5094825;28;20870;-65
2022/07/28 14:43:24;;;;;;;2.83;1.97;;;;;;;;;;5097242;28;20424;-65
2022/07/28 14:45:51;;;;;;;3.20;1.83;;;;;;;;;;5097438;28;20530;-65
2022/07/28 14:48:18;;;;;;;3.17;1.93;;;;;;;;;;5097550;28;20446;-65
2022/07/28 14:50:46;;;;;;;2.13;1.80;;;;;;;;;;5097156;28;20536;-65
2022/07/28 14:53:15;;;;;;;2.93;2.10;;;;;;;;;;5097296;28;20527;-65